Time,TemperatureF,DewpointF,PressureIn,WindDirection,WindDirectionDegrees,WindSpeedMPH,WindSpeedGustMPH,Humidity,HourlyPrecipIn,Conditions,Clouds,dailyrainin,SoftwareType,DateUTC
2013-01-22 00:02:00,42.0,15.0,30.17,ESE,107,0.0,0.0,33,0.00,,,0.00,,2013-01-22 06:02:00,
2013-01-22 00:11:00,42.0,15.0,30.17,ESE,107,0.0,0.0,33,0.00,,,0.00,,2013-01-22 06:11:00,
2013-01-22 00:22:00,42.0,15.0,30.17,ESE,107,0.0,0.0,33,0.00,,,0.00,,2013-01-22 06:22:00,
2013-01-22 00:32:00,41.0,14.0,30.17,ESE,107,0.0,0.0,33,0.00,,,0.00,,2013-01-22 06:32:00,
2013-01-22 00:52:00,41.0,14.0,30.17,ESE,107,0.0,0.0,33,0.00,,,0.00,,2013-01-22 06:52:00,
2013-01-22 01:02:00,41.0,14.0,30.18,ESE,107,0.0,0.0,33,0.00,,,0.00,,2013-01-22 07:02:00,
2013-01-22 01:11:00,41.0,14.0,30.18,ESE,107,0.0,0.0,33,0.00,,,0.00,,2013-01-22 07:11:00,
2013-01-22 01:22:00,41.0,15.0,30.18,NNE,25,0.0,2.0,34,0.00,,,0.00,,2013-01-22 07:22:00,
2013-01-22 01:32:00,39.0,14.0,30.18,NNE,25,0.0,0.0,36,0.00,,,0.00,,2013-01-22 07:32:00,
2013-01-22 01:52:00,38.0,13.0,30.18,NNE,25,0.0,0.0,36,0.00,,,0.00,,2013-01-22 07:52:00,
2013-01-22 02:02:00,37.0,14.0,30.18,NNE,25,0.0,0.0,39,0.00,,,0.00,,2013-01-22 08:02:00,
2013-01-22 02:22:00,36.0,14.0,30.18,East,82,0.0,2.0,40,0.00,,,0.00,,2013-01-22 08:22:00,
2013-01-22 02:32:00,37.0,14.0,30.18,SE,125,0.0,2.0,39,0.00,,,0.00,,2013-01-22 08:32:00,
2013-01-22 02:52:00,38.0,13.0,30.19,SE,126,0.0,1.0,36,0.00,,,0.00,,2013-01-22 08:52:00,
2013-01-22 03:02:00,37.0,13.0,30.19,SE,137,0.0,2.0,37,0.00,,,0.00,,2013-01-22 09:02:00,
2013-01-22 03:22:00,37.0,14.0,30.19,SSW,209,0.0,2.0,38,0.00,,,0.00,,2013-01-22 09:22:00,
2013-01-22 03:32:00,37.0,13.0,30.20,SSW,209,0.0,0.0,37,0.00,,,0.00,,2013-01-22 09:32:00,
2013-01-22 03:42:00,37.0,13.0,30.20,SSW,209,0.0,0.0,37,0.00,,,0.00,,2013-01-22 09:42:00,
2013-01-22 03:52:00,36.0,13.0,30.20,SSW,209,0.0,0.0,39,0.00,,,0.00,,2013-01-22 09:52:00,
2013-01-22 04:02:00,35.0,13.0,30.20,SSW,209,0.0,0.0,40,0.00,,,0.00,,2013-01-22 10:02:00,
2013-01-22 04:22:00,35.0,14.0,30.20,SSW,209,0.0,0.0,41,0.00,,,0.00,,2013-01-22 10:22:00,
2013-01-22 04:32:00,34.0,14.0,30.21,SSW,209,0.0,0.0,44,0.00,,,0.00,,2013-01-22 10:32:00,
2013-01-22 04:52:00,34.0,14.0,30.21,SW,215,0.0,1.0,43,0.00,,,0.00,,2013-01-22 10:52:00,
2013-01-22 05:02:00,35.0,13.0,30.22,SW,215,0.0,2.0,39,0.00,,,0.00,,2013-01-22 11:02:00,
2013-01-22 05:22:00,35.0,13.0,30.22,SW,215,0.0,0.0,39,0.00,,,0.00,,2013-01-22 11:22:00,
2013-01-22 05:32:00,36.0,13.0,30.21,SW,215,0.0,1.0,39,0.00,,,0.00,,2013-01-22 11:32:00,
2013-01-22 05:42:00,36.0,13.0,30.21,SW,215,0.0,1.0,39,0.00,,,0.00,,2013-01-22 11:42:00,
2013-01-22 05:53:00,35.0,12.0,30.20,SSW,203,1.0,1.0,38,0.00,,,0.00,,2013-01-22 11:53:00,
2013-01-22 06:02:00,34.0,13.0,30.20,NW,318,0.0,1.0,42,0.00,,,0.00,,2013-01-22 12:02:00,
2013-01-22 06:12:00,34.0,13.0,30.20,NW,318,0.0,1.0,42,0.00,,,0.00,,2013-01-22 12:12:00,
2013-01-22 06:22:00,33.0,12.0,30.21,NW,318,0.0,0.0,42,0.00,,,0.00,,2013-01-22 12:22:00,
2013-01-22 06:42:00,33.0,13.0,30.20,NNW,333,0.0,1.0,43,0.00,,,0.00,,2013-01-22 12:42:00,
2013-01-22 06:53:00,33.0,13.0,30.20,NW,323,0.0,1.0,43,0.00,,,0.00,,2013-01-22 12:53:00,
2013-01-22 07:02:00,34.0,13.0,30.20,NW,323,0.0,0.0,42,0.00,,,0.00,,2013-01-22 13:02:00,
2013-01-22 07:12:00,34.0,13.0,30.20,NW,323,0.0,0.0,42,0.00,,,0.00,,2013-01-22 13:12:00,
2013-01-22 07:23:00,35.0,13.0,30.20,WNW,303,0.0,1.0,39,0.00,,,0.00,,2013-01-22 13:23:00,
2013-01-22 07:32:00,34.0,12.0,30.20,WNW,302,0.0,0.0,39,0.00,,,0.00,,2013-01-22 13:32:00,
2013-01-22 07:42:00,34.0,12.0,30.20,WNW,302,0.0,0.0,39,0.00,,,0.00,,2013-01-22 13:42:00,
2013-01-22 07:53:00,35.0,13.0,30.20,WNW,302,0.0,0.0,39,0.00,,,0.00,,2013-01-22 13:53:00,
2013-01-22 08:02:00,34.0,12.0,30.20,WNW,302,0.0,0.0,40,0.00,,,0.00,,2013-01-22 14:02:00,
2013-01-22 08:12:00,34.0,12.0,30.20,WNW,302,0.0,0.0,40,0.00,,,0.00,,2013-01-22 14:12:00,
2013-01-22 08:22:00,35.0,13.0,30.20,WNW,302,0.0,0.0,39,0.00,,,0.00,,2013-01-22 14:22:00,
2013-01-22 08:33:00,33.0,13.0,30.20,WNW,302,0.0,0.0,43,0.00,,,0.00,,2013-01-22 14:33:00,
2013-01-22 08:43:00,33.0,13.0,30.20,WNW,302,0.0,0.0,43,0.00,,,0.00,,2013-01-22 14:43:00,
2013-01-22 08:53:00,32.0,13.0,30.20,WNW,302,0.0,0.0,44,0.00,,,0.00,,2013-01-22 14:53:00,
2013-01-22 09:03:00,32.0,14.0,30.21,WNW,302,0.0,0.0,46,0.00,,,0.00,,2013-01-22 15:03:00,
2013-01-22 09:12:00,32.0,14.0,30.21,WNW,302,0.0,0.0,46,0.00,,,0.00,,2013-01-22 15:12:00,
2013-01-22 09:23:00,31.0,14.0,30.21,WNW,302,0.0,0.0,49,0.00,,,0.00,,2013-01-22 15:23:00,
2013-01-22 09:33:00,31.0,15.0,30.21,WNW,302,0.0,0.0,50,0.00,,,0.00,,2013-01-22 15:33:00,
2013-01-22 09:53:00,33.0,15.0,30.21,WNW,302,0.0,0.0,47,0.00,,,0.00,,2013-01-22 15:53:00,
2013-01-22 10:03:00,37.0,16.0,30.22,WNW,302,0.0,0.0,41,0.00,,,0.00,,2013-01-22 16:03:00,
2013-01-22 10:12:00,37.0,16.0,30.22,WNW,302,0.0,0.0,41,0.00,,,0.00,,2013-01-22 16:12:00,
2013-01-22 10:23:00,41.0,17.0,30.21,WNW,302,0.0,0.0,38,0.00,,,0.00,,2013-01-22 16:23:00,
2013-01-22 10:32:00,44.0,17.0,30.22,WNW,302,0.0,0.0,33,0.00,,,0.00,,2013-01-22 16:32:00,
2013-01-22 10:42:00,44.0,17.0,30.22,WNW,302,0.0,0.0,33,0.00,,,0.00,,2013-01-22 16:42:00,
2013-01-22 10:53:00,48.0,16.0,30.22,WNW,302,0.0,0.0,28,0.00,,,0.00,,2013-01-22 16:53:00,
2013-01-22 11:03:00,49.0,16.0,30.22,ENE,77,0.0,2.0,26,0.00,,,0.00,,2013-01-22 17:03:00,
2013-01-22 11:12:00,49.0,16.0,30.22,ENE,77,0.0,2.0,26,0.00,,,0.00,,2013-01-22 17:12:00,
2013-01-22 11:23:00,50.0,17.0,30.22,SE,126,0.0,2.0,27,0.00,,,0.00,,2013-01-22 17:23:00,
2013-01-22 11:33:00,51.0,17.0,30.23,ESE,103,0.0,1.0,26,0.00,,,0.00,,2013-01-22 17:33:00,
2013-01-22 11:43:00,51.0,17.0,30.23,ESE,103,0.0,1.0,26,0.00,,,0.00,,2013-01-22 17:43:00,
2013-01-22 11:53:00,53.0,18.0,30.24,ESE,116,0.0,1.0,25,0.00,,,0.00,,2013-01-22 17:53:00,
2013-01-22 12:03:00,54.0,18.0,30.24,SE,134,2.0,4.0,24,0.00,,,0.00,,2013-01-22 18:03:00,
2013-01-22 12:12:00,54.0,18.0,30.24,SE,134,2.0,4.0,24,0.00,,,0.00,,2013-01-22 18:12:00,
2013-01-22 12:23:00,55.0,18.0,30.24,SSE,159,2.0,3.0,23,0.00,,,0.00,,2013-01-22 18:23:00,
2013-01-22 12:33:00,55.0,18.0,30.24,SE,140,0.0,1.0,23,0.00,,,0.00,,2013-01-22 18:33:00,
2013-01-22 12:42:00,55.0,18.0,30.24,SE,140,0.0,1.0,23,0.00,,,0.00,,2013-01-22 18:42:00,
2013-01-22 12:53:00,57.0,17.0,30.23,SW,228,0.0,2.0,21,0.00,,,0.00,,2013-01-22 18:53:00,
2013-01-22 13:02:00,58.0,17.0,30.23,North,11,1.0,4.0,20,0.00,,,0.00,,2013-01-22 19:02:00,
2013-01-22 13:12:00,58.0,17.0,30.23,North,11,1.0,4.0,20,0.00,,,0.00,,2013-01-22 19:12:00,
2013-01-22 13:22:00,58.0,17.0,30.23,NNE,30,0.0,2.0,20,0.00,,,0.00,,2013-01-22 19:22:00,
2013-01-22 13:33:00,58.0,16.0,30.22,SW,217,2.0,3.0,19,0.00,,,0.00,,2013-01-22 19:33:00,
2013-01-22 13:42:00,58.0,16.0,30.22,SW,217,2.0,3.0,19,0.00,,,0.00,,2013-01-22 19:42:00,
2013-01-22 13:53:00,60.0,19.0,30.21,NE,51,1.0,3.0,20,0.00,,,0.00,,2013-01-22 19:53:00,
2013-01-22 14:02:00,60.0,19.0,30.20,NNE,23,0.0,1.0,20,0.00,,,0.00,,2013-01-22 20:02:00,
2013-01-22 14:12:00,60.0,19.0,30.20,NNE,23,0.0,1.0,20,0.00,,,0.00,,2013-01-22 20:12:00,
2013-01-22 14:22:00,61.0,18.0,30.19,SW,217,1.0,2.0,19,0.00,,,0.00,,2013-01-22 20:22:00,
2013-01-22 14:32:00,62.0,18.0,30.18,SSW,200,1.0,4.0,18,0.00,,,0.00,,2013-01-22 20:32:00,
2013-01-22 14:42:00,62.0,18.0,30.18,SSW,200,1.0,4.0,18,0.00,,,0.00,,2013-01-22 20:42:00,
2013-01-22 14:53:00,62.0,17.0,30.18,SW,236,0.0,3.0,17,0.00,,,0.00,,2013-01-22 20:53:00,
2013-01-22 15:02:00,62.0,17.0,30.17,ENE,67,0.0,2.0,17,0.00,,,0.00,,2013-01-22 21:02:00,
2013-01-22 15:12:00,62.0,17.0,30.17,ENE,67,0.0,2.0,17,0.00,,,0.00,,2013-01-22 21:12:00,
2013-01-22 15:22:00,64.0,18.0,30.16,NE,35,1.0,3.0,17,0.00,,,0.00,,2013-01-22 21:22:00,
2013-01-22 15:33:00,62.0,17.0,30.16,North,355,1.0,2.0,17,0.00,,,0.00,,2013-01-22 21:33:00,
2013-01-22 15:42:00,62.0,17.0,30.16,North,355,1.0,2.0,17,0.00,,,0.00,,2013-01-22 21:42:00,
2013-01-22 15:53:00,63.0,16.0,30.15,East,87,1.0,4.0,16,0.00,,,0.00,,2013-01-22 21:53:00,
2013-01-22 16:02:00,65.0,16.0,30.15,SSW,196,1.0,4.0,15,0.00,,,0.00,,2013-01-22 22:02:00,
2013-01-22 16:12:00,65.0,16.0,30.15,SSW,196,1.0,4.0,15,0.00,,,0.00,,2013-01-22 22:12:00,
2013-01-22 16:22:00,64.0,17.0,30.15,WSW,254,0.0,3.0,16,0.00,,,0.00,,2013-01-22 22:22:00,
2013-01-22 16:32:00,64.0,17.0,30.15,WSW,254,0.0,3.0,16,0.00,,,0.00,,2013-01-22 22:32:00,
2013-01-22 16:42:00,65.0,18.0,30.15,SE,142,1.0,4.0,16,0.00,,,0.00,,2013-01-22 22:42:00,
2013-01-22 16:53:00,65.0,16.0,30.14,SE,136,2.0,4.0,15,0.00,,,0.00,,2013-01-22 22:53:00,
2013-01-22 17:02:00,64.0,17.0,30.14,SE,145,3.0,7.0,16,0.00,,,0.00,,2013-01-22 23:02:00,
2013-01-22 17:12:00,64.0,17.0,30.14,SE,145,3.0,7.0,16,0.00,,,0.00,,2013-01-22 23:12:00,
2013-01-22 17:23:00,64.0,15.0,30.14,SE,125,0.0,3.0,15,0.00,,,0.00,,2013-01-22 23:23:00,
2013-01-22 17:32:00,64.0,15.0,30.14,South,184,1.0,4.0,15,0.00,,,0.00,,2013-01-22 23:32:00,
2013-01-22 17:42:00,64.0,15.0,30.14,South,184,1.0,4.0,15,0.00,,,0.00,,2013-01-22 23:42:00,
2013-01-22 17:53:00,64.0,15.0,30.13,ESE,108,0.0,2.0,15,0.00,,,0.00,,2013-01-22 23:53:00,
2013-01-22 18:02:00,64.0,15.0,30.13,ESE,123,0.0,1.0,15,0.00,,,0.00,,2013-01-23 00:02:00,
2013-01-22 18:12:00,64.0,15.0,30.13,ESE,123,0.0,1.0,15,0.00,,,0.00,,2013-01-23 00:12:00,
2013-01-22 18:22:00,64.0,15.0,30.13,ESE,123,0.0,1.0,15,0.00,,,0.00,,2013-01-23 00:22:00,
2013-01-22 18:33:00,63.0,16.0,30.13,ESE,123,0.0,0.0,16,0.00,,,0.00,,2013-01-23 00:33:00,
2013-01-22 18:42:00,63.0,16.0,30.13,ESE,123,0.0,0.0,16,0.00,,,0.00,,2013-01-23 00:42:00,
2013-01-22 18:52:00,61.0,16.0,30.13,ESE,123,0.0,0.0,17,0.00,,,0.00,,2013-01-23 00:52:00,
2013-01-22 19:02:00,58.0,17.0,30.13,ESE,123,0.0,0.0,20,0.00,,,0.00,,2013-01-23 01:02:00,
2013-01-22 19:32:00,54.0,18.0,30.14,ESE,123,0.0,0.0,24,0.00,,,0.00,,2013-01-23 01:32:00,
2013-01-22 19:53:00,52.0,19.0,30.13,ESE,123,0.0,0.0,27,0.00,,,0.00,,2013-01-23 01:53:00,
2013-01-22 20:02:00,52.0,19.0,30.14,ESE,123,0.0,1.0,27,0.00,,,0.00,,2013-01-23 02:02:00,
2013-01-22 20:22:00,51.0,19.0,30.14,ESE,123,0.0,0.0,28,0.00,,,0.00,,2013-01-23 02:22:00,
2013-01-22 20:32:00,50.0,18.0,30.13,ESE,123,0.0,0.0,28,0.00,,,0.00,,2013-01-23 02:32:00,
2013-01-22 20:53:00,49.0,19.0,30.13,ESE,123,0.0,0.0,30,0.00,,,0.00,,2013-01-23 02:53:00,
2013-01-22 21:02:00,49.0,18.0,30.14,ESE,123,0.0,0.0,29,0.00,,,0.00,,2013-01-23 03:02:00,
2013-01-22 21:22:00,49.0,18.0,30.14,ESE,123,0.0,0.0,29,0.00,,,0.00,,2013-01-23 03:22:00,
2013-01-22 21:32:00,47.0,19.0,30.14,ESE,123,0.0,0.0,32,0.00,,,0.00,,2013-01-23 03:32:00,
2013-01-22 21:53:00,46.0,19.0,30.14,ESE,123,0.0,0.0,34,0.00,,,0.00,,2013-01-23 03:53:00,
2013-01-22 22:02:00,45.0,19.0,30.14,ESE,123,0.0,0.0,35,0.00,,,0.00,,2013-01-23 04:02:00,
2013-01-22 22:22:00,45.0,19.0,30.14,ESE,123,0.0,0.0,35,0.00,,,0.00,,2013-01-23 04:22:00,
2013-01-22 22:32:00,45.0,18.0,30.14,ESE,123,0.0,0.0,34,0.00,,,0.00,,2013-01-23 04:32:00,
2013-01-22 22:53:00,46.0,19.0,30.14,ESE,123,0.0,0.0,34,0.00,,,0.00,,2013-01-23 04:53:00,
2013-01-22 23:03:00,46.0,19.0,30.15,ESE,123,0.0,0.0,33,0.00,,,0.00,,2013-01-23 05:03:00,
2013-01-22 23:12:00,46.0,19.0,30.15,ESE,123,0.0,0.0,33,0.00,,,0.00,,2013-01-23 05:12:00,
2013-01-22 23:22:00,45.0,18.0,30.15,ESE,123,0.0,0.0,33,0.00,,,0.00,,2013-01-23 05:22:00,
2013-01-22 23:32:00,45.0,18.0,30.16,ESE,123,0.0,0.0,34,0.00,,,0.00,,2013-01-23 05:32:00,
2013-01-22 23:42:00,45.0,18.0,30.16,ESE,123,0.0,0.0,34,0.00,,,0.00,,2013-01-23 05:42:00,
2013-01-22 23:53:00,44.0,18.0,30.16,ESE,123,0.0,0.0,35,0.00,,,0.00,,2013-01-23 05:53:00,